createdAt,value
2018-03-25T00:00:45.064Z,18.20
2018-03-25T00:03:14.052Z,18.50
2018-03-25T00:05:43.418Z,18.17
2018-03-25T00:08:12.762Z,18.97
2018-03-25T00:10:42.129Z,18.50
2018-03-25T00:13:11.730Z,19.00
2018-03-25T00:15:40.749Z,19.80
2018-03-25T00:18:09.706Z,18.60
2018-03-25T00:20:39.463Z,18.47
2018-03-25T00:23:08.464Z,17.77
2018-03-25T00:25:37.442Z,17.60
2018-03-25T00:28:06.408Z,19.87
2018-03-25T00:30:36.158Z,20.30
2018-03-25T00:33:05.876Z,16.60
2018-03-25T00:35:35.630Z,18.57
2018-03-25T00:38:05.342Z,18.70
2018-03-25T00:40:35.086Z,19.20
2018-03-25T00:43:04.802Z,18.90
2018-03-25T00:45:33.783Z,18.90
2018-03-25T00:48:03.493Z,19.93
2018-03-25T00:50:32.493Z,19.17
2018-03-25T00:53:02.608Z,18.63
2018-03-25T00:55:32.688Z,20.03
2018-03-25T00:58:02.429Z,20.37
2018-03-25T01:00:31.397Z,18.90
2018-03-25T01:03:00.978Z,18.10
2018-03-25T01:05:29.916Z,19.30
2018-03-25T01:07:59.731Z,18.17
2018-03-25T01:10:28.695Z,19.97
2018-03-25T01:12:57.665Z,20.40
2018-03-25T01:15:27.020Z,19.60
2018-03-25T01:17:56.357Z,17.60
2018-03-25T01:20:26.089Z,19.20
2018-03-25T01:22:55.416Z,22.27
2018-03-25T01:25:24.398Z,19.67
2018-03-25T01:27:53.821Z,20.47
2018-03-25T01:30:22.796Z,20.23
2018-03-25T01:32:51.790Z,19.87
2018-03-25T01:35:21.149Z,22.53
2018-03-25T01:37:50.111Z,19.90
2018-03-25T01:40:19.087Z,19.47
2018-03-25T01:42:48.093Z,19.27
2018-03-25T01:45:17.458Z,19.20
2018-03-25T01:47:46.455Z,20.57
2018-03-25T01:50:15.409Z,19.77
2018-03-25T01:52:45.068Z,19.47
2018-03-25T01:55:14.023Z,19.90
2018-03-25T01:57:43.419Z,19.70
2018-03-25T02:00:12.534Z,19.63
2018-03-25T02:02:41.497Z,19.10
2018-03-25T02:05:10.481Z,20.80
2018-03-25T02:07:39.418Z,20.00
2018-03-25T02:10:08.388Z,18.50
2018-03-25T02:12:37.806Z,20.10
2018-03-25T02:15:07.166Z,20.30
2018-03-25T02:17:36.118Z,19.90
2018-03-25T02:20:05.085Z,20.30
2018-03-25T02:22:35.458Z,22.43
2018-03-25T02:25:06.290Z,20.03
2018-03-25T02:27:35.238Z,20.30
2018-03-25T02:30:04.987Z,20.90
2018-03-25T02:32:34.724Z,20.30
2018-03-25T02:35:04.429Z,21.10
2018-03-25T02:37:34.215Z,19.30
2018-03-25T02:40:03.141Z,19.90
2018-03-25T02:42:32.127Z,19.07
2018-03-25T02:45:02.079Z,21.97
2018-03-25T02:47:31.440Z,19.80
2018-03-25T02:50:01.431Z,19.73
2018-03-25T02:52:31.196Z,20.70
2018-03-25T02:55:00.545Z,19.70
2018-03-25T02:57:29.514Z,19.87
2018-03-25T02:59:58.490Z,19.80
2018-03-25T03:02:28.221Z,19.20
2018-03-25T03:04:57.567Z,19.07
2018-03-25T03:07:26.560Z,20.57
2018-03-25T03:09:55.560Z,20.07
2018-03-25T03:12:24.507Z,19.17
2018-03-25T03:14:53.480Z,21.07
2018-03-25T03:17:23.352Z,20.17
2018-03-25T03:19:52.344Z,19.60
2018-03-25T03:22:21.683Z,21.53
2018-03-25T03:24:51.049Z,21.33
2018-03-25T03:27:20.784Z,19.53
2018-03-25T03:29:50.552Z,19.30
2018-03-25T03:32:20.262Z,18.70
2018-03-25T03:34:49.201Z,20.53
2018-03-25T03:37:18.561Z,20.03
2018-03-25T03:39:48.326Z,18.77
2018-03-25T03:42:17.753Z,20.73
2018-03-25T03:44:46.726Z,20.23
2018-03-25T03:47:15.661Z,20.07
2018-03-25T03:49:44.636Z,20.87
2018-03-25T03:52:13.721Z,20.33
2018-03-25T03:54:42.693Z,19.40
2018-03-25T03:57:11.702Z,20.20
2018-03-25T03:59:41.489Z,20.33
2018-03-25T04:02:11.261Z,18.60
2018-03-25T04:04:40.608Z,20.30
2018-03-25T04:07:09.562Z,18.93
2018-03-25T04:09:40.059Z,19.73
2018-03-25T04:12:09.461Z,19.43
2018-03-25T04:14:38.440Z,20.10
2018-03-25T04:17:07.468Z,20.00
2018-03-25T04:19:36.425Z,19.07
2018-03-25T04:22:05.789Z,19.53
2018-03-25T04:24:35.595Z,19.23
2018-03-25T04:27:04.695Z,18.77
2018-03-25T04:29:34.403Z,19.37
2018-03-25T04:32:06.099Z,19.80
2018-03-25T04:34:35.650Z,22.80
2018-03-25T04:37:08.691Z,23.17
2018-03-25T04:39:38.091Z,22.90
2018-03-25T04:42:10.547Z,21.40
2018-03-25T04:44:40.564Z,24.50
2018-03-25T04:47:10.316Z,24.20
2018-03-25T04:49:39.385Z,24.53
2018-03-25T04:52:08.354Z,25.13
2018-03-25T04:54:38.100Z,22.30
2018-03-25T04:57:07.941Z,22.50
2018-03-25T04:59:36.909Z,21.63
2018-03-25T05:02:05.894Z,21.10
2018-03-25T05:04:35.612Z,21.40
2018-03-25T05:07:04.591Z,20.93
2018-03-25T05:09:33.575Z,22.60
2018-03-25T05:12:02.535Z,22.70
2018-03-25T05:14:32.298Z,20.20
2018-03-25T05:17:01.657Z,21.00
2018-03-25T05:19:30.606Z,21.90
2018-03-25T05:22:01.099Z,20.43
2018-03-25T05:24:31.208Z,21.03
2018-03-25T05:27:00.164Z,20.20
2018-03-25T05:29:29.937Z,20.33
2018-03-25T05:31:59.653Z,17.80
2018-03-25T05:34:29.402Z,17.33
2018-03-25T05:36:59.155Z,18.30
2018-03-25T05:39:28.092Z,19.00
2018-03-25T05:41:57.508Z,19.33
2018-03-25T05:44:26.470Z,17.40
2018-03-25T05:46:55.526Z,18.53
2018-03-25T05:49:24.588Z,17.73
2018-03-25T05:51:53.548Z,18.97
2018-03-25T05:54:22.512Z,17.83
2018-03-25T05:56:52.282Z,18.90
2018-03-25T05:59:21.702Z,19.67
2018-03-25T06:01:51.832Z,17.27
2018-03-25T06:04:21.787Z,17.53
2018-03-25T06:06:51.560Z,18.00
2018-03-25T06:09:20.660Z,18.07
2018-03-25T06:11:49.620Z,16.90
2018-03-25T06:14:19.366Z,17.27
2018-03-25T06:16:48.547Z,17.57
2018-03-25T06:19:19.255Z,17.00
2018-03-25T06:21:49.045Z,16.07
2018-03-25T06:24:19.025Z,17.23
2018-03-25T06:26:48.977Z,17.57
2018-03-25T06:29:19.807Z,19.77
2018-03-25T06:31:50.303Z,18.47
2018-03-25T06:34:20.313Z,16.80
2018-03-25T06:36:50.164Z,17.43
2018-03-25T06:39:19.158Z,17.80
2018-03-25T06:41:49.746Z,17.67
2018-03-25T06:44:18.731Z,19.20
2018-03-25T06:46:47.740Z,17.13
2018-03-25T06:49:18.098Z,16.33
2018-03-25T06:51:47.448Z,16.43
2018-03-25T06:54:17.180Z,15.93
2018-03-25T06:56:47.763Z,16.67
2018-03-25T06:59:18.272Z,17.77
2018-03-25T07:01:47.296Z,17.37
2018-03-25T07:04:16.277Z,17.30
2018-03-25T07:06:46.108Z,15.80
2018-03-25T07:09:16.674Z,16.70
2018-03-25T07:11:46.486Z,14.73
2018-03-25T07:14:16.978Z,16.63
2018-03-25T07:16:46.849Z,16.90
2018-03-25T07:19:17.036Z,13.97
2018-03-25T07:21:46.128Z,16.30
2018-03-25T07:24:18.196Z,16.00
2018-03-25T07:26:47.199Z,16.30
2018-03-25T07:29:18.842Z,16.63
2018-03-25T07:31:48.669Z,16.07
2018-03-25T07:34:17.678Z,16.70
2018-03-25T07:36:47.699Z,16.67
2018-03-25T07:39:16.722Z,15.30
2018-03-25T07:41:46.661Z,15.27
2018-03-25T07:44:15.649Z,16.23
2018-03-25T07:46:45.009Z,15.13
2018-03-25T07:49:13.948Z,15.57
2018-03-25T07:51:43.788Z,15.63
2018-03-25T07:54:13.681Z,15.03
2018-03-25T07:56:42.669Z,15.20
2018-03-25T07:59:12.585Z,15.57
2018-03-25T08:01:42.390Z,16.47
2018-03-25T08:04:11.360Z,14.40
2018-03-25T08:06:40.320Z,16.13
2018-03-25T08:09:09.435Z,15.80
2018-03-25T08:11:39.204Z,15.63
2018-03-25T08:14:08.930Z,15.00
2018-03-25T08:16:37.986Z,16.93
2018-03-25T08:19:06.996Z,16.00
2018-03-25T08:21:36.380Z,17.30
2018-03-25T08:24:05.400Z,19.30
2018-03-25T08:26:35.934Z,15.53
2018-03-25T08:29:05.983Z,16.97
2018-03-25T08:31:36.108Z,17.57
2018-03-25T08:34:05.426Z,17.57
2018-03-25T08:36:34.838Z,17.53
2018-03-25T08:39:04.868Z,17.27
2018-03-25T08:41:34.748Z,15.67
2018-03-25T08:44:04.264Z,16.13
2018-03-25T08:46:33.456Z,17.23
2018-03-25T08:49:03.073Z,16.60
2018-03-25T08:51:33.016Z,17.63
2018-03-25T08:54:02.681Z,17.07
2018-03-25T08:56:32.905Z,17.50
2018-03-25T08:59:03.427Z,17.23
2018-03-25T09:01:32.628Z,17.10
2018-03-25T09:04:03.465Z,17.47
2018-03-25T09:06:34.096Z,17.37
2018-03-25T09:09:03.658Z,17.10
2018-03-25T09:11:34.893Z,17.50
2018-03-25T09:14:03.858Z,18.23
2018-03-25T09:16:34.388Z,17.20
2018-03-25T09:19:04.155Z,17.10
2018-03-25T09:21:34.930Z,16.97
2018-03-25T09:24:06.881Z,17.77
2018-03-25T09:26:36.260Z,18.83
2018-03-25T09:29:05.995Z,16.50
2018-03-25T09:31:37.020Z,18.07
2018-03-25T09:34:06.071Z,16.33
2018-03-25T09:36:37.239Z,17.30
2018-03-25T09:39:06.252Z,16.00
2018-03-25T09:41:35.767Z,17.63
2018-03-25T09:44:05.402Z,16.83
2018-03-25T09:46:36.088Z,17.77
2018-03-25T09:49:05.870Z,17.77
2018-03-25T09:51:34.885Z,15.50
2018-03-25T09:54:04.656Z,17.73
2018-03-25T09:56:33.736Z,16.23
2018-03-25T09:59:04.235Z,17.00
2018-03-25T10:01:34.737Z,15.80
2018-03-25T10:04:03.888Z,17.17
2018-03-25T10:06:32.873Z,16.53
2018-03-25T10:09:02.716Z,16.50
2018-03-25T10:11:31.754Z,15.13
2018-03-25T10:14:00.761Z,16.20
2018-03-25T10:16:30.543Z,16.17
2018-03-25T10:18:59.519Z,15.77
2018-03-25T10:21:29.756Z,15.70
2018-03-25T10:24:01.226Z,15.27
2018-03-25T10:26:31.013Z,14.90
2018-03-25T10:29:02.968Z,14.53
2018-03-25T10:31:41.897Z,15.63
2018-03-25T10:34:12.474Z,14.23
2018-03-25T10:36:42.248Z,12.87
2018-03-25T10:39:12.014Z,13.70
2018-03-25T10:41:41.822Z,13.73
2018-03-25T10:44:10.794Z,13.60
2018-03-25T10:46:39.873Z,13.50
2018-03-25T10:49:09.674Z,11.67
2018-03-25T10:51:39.418Z,11.70
2018-03-25T10:54:09.290Z,11.87
2018-03-25T10:56:39.074Z,11.40
2018-03-25T10:59:08.727Z,10.53
2018-03-25T11:01:37.756Z,10.60
2018-03-25T11:04:07.355Z,11.00
2018-03-25T11:06:37.172Z,10.77
2018-03-25T11:09:07.122Z,10.53
2018-03-25T11:11:37.730Z,10.73
2018-03-25T11:14:08.067Z,10.90
2018-03-25T11:16:37.939Z,11.00
2018-03-25T11:19:07.779Z,11.27
2018-03-25T11:21:37.146Z,11.13
2018-03-25T11:24:07.102Z,10.90
2018-03-25T11:26:36.163Z,10.60
2018-03-25T11:29:05.883Z,11.13
2018-03-25T11:31:34.891Z,11.03
2018-03-25T11:34:06.154Z,10.60
2018-03-25T11:36:35.157Z,10.60
2018-03-25T11:39:05.615Z,11.50
2018-03-25T11:41:34.613Z,11.97
2018-03-25T11:44:03.788Z,11.70
2018-03-25T11:46:33.915Z,11.03
2018-03-25T11:49:02.913Z,11.43
2018-03-25T11:51:31.909Z,9.23
2018-03-25T11:54:01.235Z,10.90
2018-03-25T11:56:30.303Z,10.97
2018-03-25T11:59:00.059Z,9.57
2018-03-25T12:01:29.470Z,10.40
2018-03-25T12:03:58.423Z,11.23
2018-03-25T12:06:27.625Z,10.93
2018-03-25T12:08:57.492Z,11.30
2018-03-25T12:11:27.214Z,11.87
2018-03-25T12:13:56.182Z,11.53
2018-03-25T12:16:25.625Z,10.60
2018-03-25T12:18:55.373Z,11.77
2018-03-25T12:21:24.679Z,11.27
2018-03-25T12:23:53.656Z,12.23
2018-03-25T12:26:23.404Z,11.40
2018-03-25T12:28:52.402Z,11.60
2018-03-25T12:31:21.761Z,12.70
2018-03-25T12:33:50.762Z,11.57
2018-03-25T12:36:19.730Z,11.83
2018-03-25T12:38:48.762Z,13.87
2018-03-25T12:41:17.722Z,12.20
2018-03-25T12:43:47.926Z,13.80
2018-03-25T12:46:16.906Z,14.33
2018-03-25T12:48:45.890Z,12.20
2018-03-25T12:51:14.887Z,12.37
2018-03-25T12:53:43.922Z,13.17
2018-03-25T12:56:13.702Z,13.47
2018-03-25T12:58:42.696Z,12.23
2018-03-25T13:01:11.660Z,14.57
2018-03-25T13:03:41.414Z,13.60
2018-03-25T13:06:10.410Z,14.20
2018-03-25T13:08:39.367Z,12.43
2018-03-25T13:11:08.523Z,12.47
2018-03-25T13:13:37.761Z,13.50
2018-03-25T13:16:06.832Z,14.57
2018-03-25T13:18:36.657Z,15.50
2018-03-25T13:21:06.418Z,15.27
2018-03-25T13:23:35.442Z,14.30
2018-03-25T13:26:04.853Z,15.73
2018-03-25T13:28:33.820Z,13.47
2018-03-25T13:31:04.009Z,18.03
2018-03-25T13:33:33.754Z,15.50
2018-03-25T13:36:02.728Z,12.70
2018-03-25T13:38:32.535Z,14.40
2018-03-25T13:41:01.940Z,14.20
2018-03-25T13:43:31.838Z,13.63
2018-03-25T13:46:00.892Z,14.67
2018-03-25T13:48:29.859Z,16.13
2018-03-25T13:50:59.641Z,14.80
2018-03-25T13:53:28.615Z,15.63
2018-03-25T13:55:57.621Z,14.47
2018-03-25T13:58:26.968Z,15.43
2018-03-25T14:00:56.760Z,13.27
2018-03-25T14:03:25.788Z,13.40
2018-03-25T14:05:55.172Z,13.27
2018-03-25T14:08:24.211Z,13.13
2018-03-25T14:10:53.629Z,14.77
2018-03-25T14:13:22.630Z,16.00
2018-03-25T14:15:52.361Z,16.23
2018-03-25T14:18:22.864Z,14.73
2018-03-25T14:20:52.332Z,16.70
2018-03-25T14:23:21.828Z,15.70
2018-03-25T14:25:51.513Z,14.40
2018-03-25T14:28:20.510Z,15.40
2018-03-25T14:30:49.490Z,16.17
2018-03-25T14:33:18.921Z,15.10
2018-03-25T14:35:48.940Z,15.13
2018-03-25T14:38:18.743Z,15.43
2018-03-25T14:40:47.737Z,16.27
2018-03-25T14:43:16.894Z,16.50
2018-03-25T14:45:46.490Z,15.20
2018-03-25T14:48:16.770Z,18.60
2018-03-25T14:50:46.447Z,15.30
2018-03-25T14:53:15.694Z,17.43
2018-03-25T14:55:44.724Z,18.17
2018-03-25T14:58:14.483Z,16.27
2018-03-25T15:00:46.609Z,17.60
2018-03-25T15:03:15.959Z,17.77
2018-03-25T15:05:45.800Z,17.37
2018-03-25T15:08:14.755Z,16.47
2018-03-25T15:10:45.418Z,16.63
2018-03-25T15:13:14.414Z,19.47
2018-03-25T15:15:44.003Z,17.97
2018-03-25T15:18:13.766Z,20.90
2018-03-25T15:20:43.963Z,18.50
2018-03-25T15:23:12.950Z,18.93
2018-03-25T15:25:42.736Z,18.93
2018-03-25T15:28:12.755Z,18.80
2018-03-25T15:30:43.485Z,19.60
2018-03-25T15:33:13.929Z,18.20
2018-03-25T15:35:44.075Z,19.73
2018-03-25T15:38:15.271Z,17.93
2018-03-25T15:40:45.340Z,19.20
2018-03-25T15:43:15.117Z,18.33
2018-03-25T15:45:44.958Z,20.20
2018-03-25T15:48:13.937Z,20.23
2018-03-25T15:50:44.252Z,21.77
2018-03-25T15:53:13.264Z,23.37
2018-03-25T15:55:44.487Z,22.87
2018-03-25T15:58:14.038Z,23.10
2018-03-25T16:00:44.391Z,22.07
2018-03-25T16:03:13.394Z,21.70
2018-03-25T16:05:44.179Z,22.67
2018-03-25T16:08:14.119Z,22.80
2018-03-25T16:10:43.501Z,22.87
2018-03-25T16:13:12.519Z,25.83
2018-03-25T16:15:42.557Z,24.97
2018-03-25T16:18:13.197Z,24.00
2018-03-25T16:20:43.618Z,24.53
2018-03-25T16:23:14.708Z,23.67
2018-03-25T16:25:45.479Z,27.67
2018-03-25T16:28:14.501Z,25.20
2018-03-25T16:30:43.885Z,26.17
2018-03-25T16:33:13.137Z,28.87
2018-03-25T16:35:42.967Z,27.40
2018-03-25T16:38:13.656Z,24.27
2018-03-25T16:40:45.304Z,26.30
2018-03-25T16:43:14.348Z,24.53
2018-03-25T16:45:43.800Z,25.67
2018-03-25T16:48:13.819Z,26.13
2018-03-25T16:50:43.615Z,27.07
2018-03-25T16:53:14.823Z,25.53
2018-03-25T16:55:44.704Z,26.90
2018-03-25T16:58:13.764Z,25.67
2018-03-25T17:00:43.521Z,23.77
2018-03-25T17:03:12.554Z,24.87
2018-03-25T17:05:42.364Z,25.10
2018-03-25T17:08:11.913Z,27.70
2018-03-25T17:10:41.555Z,26.93
2018-03-25T17:13:11.415Z,29.30
2018-03-25T17:15:41.226Z,27.37
2018-03-25T17:18:10.688Z,27.13
2018-03-25T17:20:40.463Z,26.50
2018-03-25T17:23:10.328Z,30.67
2018-03-25T17:25:40.148Z,29.37
2018-03-25T17:28:09.732Z,34.70
2018-03-25T17:30:39.518Z,28.80
2018-03-25T17:33:08.549Z,26.57
2018-03-25T17:35:38.313Z,25.13
2018-03-25T17:38:08.087Z,26.27
2018-03-25T17:40:37.202Z,24.73
2018-03-25T17:43:06.648Z,25.30
2018-03-25T17:45:36.473Z,27.17
2018-03-25T17:48:06.376Z,24.80
2018-03-25T17:50:37.071Z,25.60
2018-03-25T17:53:06.436Z,28.87
2018-03-25T17:55:35.442Z,28.67
2018-03-25T17:58:05.500Z,26.40
2018-03-25T18:00:35.273Z,27.93
2018-03-25T18:03:04.634Z,26.47
2018-03-25T18:05:34.418Z,26.00
2018-03-25T18:08:03.708Z,28.77
2018-03-25T18:10:33.456Z,26.40
2018-03-25T18:13:03.392Z,27.20
2018-03-25T18:15:33.786Z,29.13
2018-03-25T18:18:03.140Z,26.73
2018-03-25T18:20:32.123Z,27.23
2018-03-25T18:23:01.997Z,26.70
2018-03-25T18:25:32.505Z,26.00
2018-03-25T18:28:01.553Z,27.97
2018-03-25T18:30:30.732Z,27.60
2018-03-25T18:33:00.128Z,27.47
2018-03-25T18:35:29.916Z,27.93
2018-03-25T18:37:59.708Z,24.63
2018-03-25T18:40:30.564Z,29.90
2018-03-25T18:42:59.591Z,27.07
2018-03-25T18:45:28.997Z,28.10
2018-03-25T18:47:59.849Z,26.70
2018-03-25T18:50:28.911Z,28.33
2018-03-25T18:52:59.078Z,27.83
2018-03-25T18:55:28.142Z,27.40
2018-03-25T18:57:57.907Z,32.07
2018-03-25T19:00:28.410Z,32.73
2018-03-25T19:02:57.464Z,32.73
2018-03-25T19:05:27.466Z,28.13
2018-03-25T19:07:57.497Z,29.27
2018-03-25T19:10:27.309Z,28.80
2018-03-25T19:12:57.874Z,29.27
2018-03-25T19:15:27.629Z,28.33
2018-03-25T19:17:56.658Z,29.80
2018-03-25T19:20:26.117Z,28.60
2018-03-25T19:22:55.910Z,31.60
2018-03-25T19:25:25.674Z,30.00
2018-03-25T19:27:55.535Z,28.67
2018-03-25T19:30:25.471Z,30.13
2018-03-25T19:32:55.249Z,29.90
2018-03-25T19:35:25.473Z,30.47
2018-03-25T19:37:55.016Z,30.60
2018-03-25T19:40:24.025Z,31.17
2018-03-25T19:42:53.490Z,30.73
2018-03-25T19:45:22.499Z,31.23
2018-03-25T19:47:51.483Z,30.40
2018-03-25T19:50:20.438Z,30.80
2018-03-25T19:52:50.040Z,30.40
2018-03-25T19:55:19.092Z,30.77
2018-03-25T19:57:50.000Z,30.30
2018-03-25T20:00:19.030Z,32.80
2018-03-25T20:02:48.440Z,37.72
2018-03-25T20:05:17.471Z,36.20
2018-03-25T20:07:46.511Z,32.43
2018-03-25T20:10:16.295Z,32.77
2018-03-25T20:12:45.733Z,32.13
2018-03-25T20:15:16.044Z,33.20
2018-03-25T20:17:46.025Z,31.60
2018-03-25T20:20:15.067Z,38.17
2018-03-25T20:22:44.894Z,37.00
2018-03-25T20:25:13.922Z,32.50
2018-03-25T20:27:44.463Z,57.13
2018-03-25T20:30:13.474Z,41.97
2018-03-25T20:32:42.904Z,38.97
2018-03-25T20:35:12.684Z,34.30
2018-03-25T20:37:42.476Z,36.80
2018-03-25T20:40:11.485Z,35.10
2018-03-25T20:42:41.415Z,34.97
2018-03-25T20:45:12.671Z,36.73
2018-03-25T20:47:42.500Z,35.50
2018-03-25T20:50:13.209Z,35.90
2018-03-25T20:52:44.371Z,37.60
2018-03-25T20:55:13.875Z,33.60
2018-03-25T20:57:42.914Z,35.90
2018-03-25T21:00:12.187Z,35.90
2018-03-25T21:02:46.038Z,34.90
2018-03-25T21:05:15.784Z,33.13
2018-03-25T21:07:46.013Z,38.23
2018-03-25T21:10:15.811Z,36.63
2018-03-25T21:12:44.810Z,35.47
2018-03-25T21:15:13.839Z,33.63
2018-03-25T21:17:43.215Z,35.30
2018-03-25T21:20:13.009Z,34.63
2018-03-25T21:22:42.866Z,33.23
2018-03-25T21:25:12.627Z,34.33
2018-03-25T21:27:42.426Z,35.50
2018-03-25T21:30:12.276Z,37.00
2018-03-25T21:32:42.133Z,33.53
2018-03-25T21:35:11.192Z,35.23
2018-03-25T21:37:40.196Z,34.07
2018-03-25T21:40:09.199Z,32.40
2018-03-25T21:42:38.656Z,32.80
2018-03-25T21:45:08.254Z,33.40
2018-03-25T21:47:38.069Z,34.37
2018-03-25T21:50:07.569Z,31.63
2018-03-25T21:52:37.345Z,33.93
2018-03-25T21:55:07.101Z,31.17
2018-03-25T21:57:36.884Z,33.27
2018-03-25T22:00:10.160Z,34.67
2018-03-25T22:02:41.230Z,29.83
2018-03-25T22:05:10.366Z,31.60
2018-03-25T22:07:39.362Z,31.37
2018-03-25T22:10:08.350Z,32.13
2018-03-25T22:12:37.348Z,32.83
2018-03-25T22:15:06.737Z,31.60
2018-03-25T22:17:35.729Z,29.87
2018-03-25T22:20:05.441Z,32.50
2018-03-25T22:22:34.495Z,30.03
2018-03-25T22:25:03.851Z,33.87
2018-03-25T22:27:32.837Z,32.40
2018-03-25T22:30:02.602Z,30.73
2018-03-25T22:32:32.018Z,33.87
2018-03-25T22:35:01.389Z,34.07
2018-03-25T22:37:31.136Z,34.83
2018-03-25T22:40:00.533Z,32.60
2018-03-25T22:42:29.920Z,31.03
2018-03-25T22:44:58.891Z,32.03
2018-03-25T22:47:27.870Z,32.13
2018-03-25T22:49:56.846Z,33.70
2018-03-25T22:52:26.613Z,32.60
2018-03-25T22:54:56.110Z,32.53
2018-03-25T22:57:25.105Z,32.77
2018-03-25T22:59:54.829Z,32.67
2018-03-25T23:02:24.731Z,31.23
2018-03-25T23:04:54.570Z,30.97
2018-03-25T23:07:23.549Z,35.20
2018-03-25T23:09:52.563Z,31.93
2018-03-25T23:12:21.532Z,32.40
2018-03-25T23:14:51.279Z,35.47
2018-03-25T23:17:20.735Z,33.60
2018-03-25T23:19:50.473Z,31.57
2018-03-25T23:22:20.603Z,33.57
2018-03-25T23:24:49.612Z,32.60
2018-03-25T23:27:18.616Z,32.83
2018-03-25T23:29:50.420Z,31.13
2018-03-25T23:32:20.161Z,31.83
2018-03-25T23:34:49.185Z,34.67
2018-03-25T23:37:18.714Z,35.40
2018-03-25T23:39:48.442Z,33.90
2018-03-25T23:42:18.000Z,31.63
2018-03-25T23:44:46.977Z,32.17
2018-03-25T23:47:16.706Z,31.67
2018-03-25T23:49:46.143Z,34.80
2018-03-25T23:52:15.486Z,32.70
2018-03-25T23:54:44.443Z,32.90
2018-03-25T23:57:13.434Z,34.13
2018-03-25T23:59:42.402Z,33.53
